ADDS METAR Data INFO
IDs: Format: Raw Decoded Include TAF

Data at: 0842 UTC 27 Jun 2017

KGZN 270820Z AUTO 17003KT 10SM FEW023 BKN029 20/20 A3007 RMK AO2
KGZN 270800Z AUTO 13003KT 10SM CLR 20/20 A3007 RMK AO2
KGZN 270740Z AUTO 00000KT 10SM CLR 21/20 A3008 RMK AO2
KGZN 270720Z AUTO 17006KT 10SM CLR 21/20 A3007 RMK AO2
KGZN 270700Z AUTO 20003KT 10SM CLR 21/20 A3008 RMK AO2
KGZN 270640Z AUTO 18003KT 10SM CLR 21/20 A3009 RMK AO2
KGZN 270620Z AUTO 16003KT 10SM FEW027 21/20 A3010 RMK AO2
KGZN 270600Z AUTO 17003KT 10SM FEW027 FEW033 22/20 A3010 RMK AO2
KGZN 270540Z AUTO 16003KT 10SM CLR 22/20 A3010 RMK AO2
KGZN 270520Z AUTO 13003KT 10SM FEW032 FEW038 SCT046 22/20 A3011 RMK AO2
KGZN 270500Z AUTO 15003KT 10SM FEW030 BKN036 BKN045 22/20 A3010 RMK AO2
KGZN 270440Z AUTO 15005KT 10SM BKN035 BKN042 22/20 A3009 RMK AO2
KGZN 270420Z AUTO 00000KT 10SM FEW035 22/20 A3009 RMK AO2
KGZN 270400Z AUTO 17004KT 10SM FEW027 SCT037 22/20 A3008 RMK AO2
KGZN 270340Z AUTO 16003KT 10SM SCT026 SCT037 BKN048 22/21 A3008 RMK AO2
KGZN 270320Z AUTO 18004KT 10SM CLR 23/20 A3007 RMK AO2
KGZN 270300Z AUTO 15005KT 10SM FEW032 FEW039 FEW045 23/20 A3006 RMK AO2
KGZN 270240Z AUTO 17007KT 10SM CLR 24/21 A3006 RMK AO2
KGZN 270220Z AUTO 17009KT 10SM CLR 24/21 A3006 RMK AO2
KGZN 270200Z AUTO 16007KT 10SM CLR 25/22 A3006 RMK AO2
KGZN 270140Z AUTO 13005KT 10SM CLR 25/22 A3006 RMK AO2
KGZN 270120Z AUTO 13004KT 10SM CLR 26/22 A3006 RMK AO2
KGZN 270100Z AUTO 13006KT 10SM CLR 27/22 A3006 RMK AO2
KGZN 270040Z AUTO 12004KT 10SM CLR 27/21 A3006 RMK AO2
KGZN 270020Z AUTO 13003KT 10SM CLR 27/22 A3006 RMK AO2
KGZN 270000Z AUTO 00000KT 10SM CLR 27/22 A3006 RMK AO2
KGZN 262340Z AUTO 12004KT 10SM CLR 27/22 A3005 RMK AO2
KGZN 262320Z AUTO 14004KT 10SM CLR 27/22 A3005 RMK AO2
KGZN 262300Z AUTO 13004KT 10SM CLR 27/22 A3005 RMK AO2
KGZN 262240Z AUTO 12004KT 10SM CLR 27/22 A3005 RMK AO2
KGZN 262220Z AUTO 13006KT 10SM FEW037 27/22 A3006 RMK AO2
KGZN 262200Z AUTO 13004KT 10SM CLR 28/21 A3007 RMK AO2
KGZN 262140Z AUTO 11006KT 10SM CLR 28/20 A3007 RMK AO2
KGZN 262120Z AUTO 12007KT 10SM FEW033 29/20 A3007 RMK AO2
KGZN 262100Z AUTO 11008KT 10SM SCT033 29/21 A3007 RMK AO2
KGZN 262040Z AUTO 13008KT 10SM FEW032 29/21 A3007 RMK AO2
KGZN 262020Z AUTO 13007KT 10SM FEW031 29/22 A3008 RMK AO2
KGZN 262000Z AUTO 07008KT 10SM FEW029 SCT034 29/21 A3010 RMK AO2
KGZN 261940Z AUTO VRB06KT 10SM FEW029 SCT034 SCT050 29/21 A3011 RMK AO2
KGZN 261920Z AUTO 09009KT 10SM SCT030 SCT041 BKN049 29/22 A3012 RMK AO2
KGZN 261900Z AUTO 11007KT 10SM SCT032 BKN040 OVC049 28/21 A3013 RMK AO2
KGZN 261840Z AUTO 12004KT 10SM BKN031 BKN042 OVC070 28/21 A3014 RMK AO2
KGZN 261820Z AUTO 00000KT 10SM BKN029 BKN038 OVC044 27/21 A3015 RMK AO2
KGZN 261800Z AUTO 00000KT 10SM BKN029 BKN035 BKN041 28/20 A3015 RMK AO2
KGZN 261740Z AUTO 02003KT 10SM FEW031 SCT037 BKN080 28/21 A3015 RMK AO2
KGZN 261720Z AUTO 00000KT 10SM SCT028 SCT037 BKN075 27/21 A3016 RMK AO2
KGZN 261700Z AUTO 06004KT 10SM FEW026 SCT032 SCT037 27/21 A3016 RMK AO2
KGZN 261640Z AUTO 00000KT 10SM FEW025 SCT035 BKN065 27/21 A3017 RMK AO2
KGZN 261620Z AUTO 00000KT 10SM FEW019 FEW060 27/21 A3017 RMK AO2
KGZN 261600Z AUTO 23004KT 10SM FEW019 SCT065 27/21 A3017 RMK AO2
KGZN 261540Z AUTO 24004KT 10SM FEW016 BKN065 25/21 A3018 RMK AO2
KGZN 261520Z AUTO 21005KT 10SM BKN014 BKN020 25/21 A3018 RMK AO2
KGZN 261500Z AUTO 00000KT 10SM OVC013 25/21 A3019 RMK AO2
KGZN 261440Z AUTO 00000KT 10SM BKN009 BKN014 OVC019 24/21 A3019 RMK AO2
KGZN 261420Z AUTO 16006KT 10SM SCT007 BKN013 BKN019 24/22 A3019 RMK AO2
KGZN 261400Z AUTO 15006KT 9SM BKN007 OVC012 23/22 A3019 RMK AO2
KGZN 261340Z AUTO 16006KT 8SM BKN006 OVC009 23/21 A3019 RMK AO2
KGZN 261320Z AUTO 16005KT 8SM BKN005 OVC008 22/21 A3019 RMK AO2
KGZN 261300Z AUTO 16004KT 6SM BR OVC004 22/21 A3019 RMK AO2
KGZN 261240Z AUTO 16005KT 5SM BR OVC004 22/21 A3018 RMK AO2
KGZN 261220Z AUTO 15005KT 5SM BR OVC004 22/21 A3018 RMK AO2
KGZN 261200Z AUTO 15005KT 5SM BR OVC004 22/21 A3017 RMK AO2
KGZN 261140Z AUTO 16007KT 6SM BR OVC004 22/21 A3017 RMK AO2
KGZN 261120Z AUTO 16009KT 7SM OVC005 22/21 A3016 RMK AO2
KGZN 261100Z AUTO 15007KT 9SM OVC005 22/21 A3016 RMK AO2
KGZN 261040Z AUTO 14007KT 10SM OVC006 22/21 A3016 RMK AO2
KGZN 261020Z AUTO 13006KT 10SM OVC005 22/21 A3016 RMK AO2
KGZN 261000Z AUTO 14005KT 10SM BKN007 OVC010 22/21 A3016 RMK AO2
KGZN 260940Z AUTO 12006KT 10SM OVC007 22/21 A3016 RMK AO2
KGZN 260920Z AUTO 11004KT 10SM SCT007 OVC016 22/21 A3017 RMK AO2
KGZN 260900Z AUTO 13007KT 10SM BKN016 BKN044 21/21 A3016 RMK AO2
KGZN 260840Z AUTO 13007KT 10SM FEW017 SCT037 SCT050 21/21 A3016 RMK AO2
KGZN 260820Z AUTO 14008KT 10SM FEW038 FEW050 21/21 A3016 RMK AO2
KGZN 260800Z AUTO 14007KT 10SM SCT017 SCT024 BKN040 21/20 A3016 RMK AO2
KGZN 260740Z AUTO 12005KT 10SM SCT017 BKN024 BKN036 21/20 A3018 RMK AO2
KGZN 260720Z AUTO 13006KT 10SM BKN023 BKN035 BKN042 21/20 A3018 RMK AO2
KGZN 260700Z AUTO 13007KT 10SM CLR 22/20 A3018 RMK AO2
KGZN 260640Z AUTO 12007KT 10SM CLR 22/20 A3019 RMK AO2
KGZN 260620Z AUTO 13006KT 10SM CLR 22/20 A3019 RMK AO2
KGZN 260600Z AUTO 14008KT 10SM CLR 22/21 A3018 RMK AO2
KGZN 260540Z AUTO 12007KT 10SM CLR 22/21 A3019 RMK AO2
KGZN 260520Z AUTO 13008KT 10SM FEW050 22/20 A3019 RMK AO2
KGZN 260500Z AUTO 13007KT 10SM FEW050 23/20 A3018 RMK AO2
KGZN 260440Z AUTO 13008KT 10SM FEW041 FEW048 FEW060 23/21 A3018 RMK AO2
KGZN 260420Z AUTO 12008KT 10SM SCT042 SCT050 23/21 A3019 RMK AO2
KGZN 260400Z AUTO 12006KT 10SM FEW041 23/21 A3019 RMK AO2
KGZN 260340Z AUTO 10008KT 10SM CLR 23/21 A3018 RMK AO2
KGZN 260320Z AUTO 10007KT 10SM FEW044 FEW055 23/21 A3018 RMK AO2
KGZN 260300Z AUTO 10006KT 10SM FEW037 FEW048 FEW055 24/21 A3017 RMK AO2
KGZN 260240Z AUTO 10005KT 10SM CLR 24/21 A3017 RMK AO2
KGZN 260220Z AUTO 10005KT 10SM SCT030 SCT041 24/20 A3016 RMK AO2
KGZN 260200Z AUTO 11006KT 10SM SCT031 SCT037 25/20 A3015 RMK AO2
KGZN 260140Z AUTO 09005KT 10SM SCT037 25/20 A3015 RMK AO2
KGZN 260120Z AUTO 10005KT 10SM CLR 26/20 A3015 RMK AO2
KGZN 260100Z AUTO 11006KT 10SM CLR 27/20 A3015 RMK AO2
KGZN 260040Z AUTO 10004KT 10SM FEW060 27/20 A3014 RMK AO2
KGZN 260020Z AUTO 11008KT 10SM BKN060 27/20 A3014 RMK AO2
KGZN 260000Z AUTO 09008KT 10SM BKN060 28/19 A3014 RMK AO2
KGZN 252340Z AUTO 08005KT 10SM FEW036 BKN060 28/19 A3014 RMK AO2
KGZN 252320Z AUTO 08009KT 10SM FEW036 BKN060 28/19 A3015 RMK AO2
KGZN 252300Z AUTO 11006KT 10SM FEW060 28/19 A3015 RMK AO2
KGZN 252240Z AUTO VRB05G10KT 10SM FEW038 SCT055 28/19 A3015 RMK AO2
KGZN 252220Z AUTO 11006KT 10SM FEW037 FEW042 BKN055 28/19 A3016 RMK AO2
KGZN 252200Z AUTO 10008KT 10SM FEW037 FEW043 BKN055 28/20 A3017 RMK AO2
KGZN 252140Z AUTO 10010KT 10SM FEW039 SCT055 28/19 A3018 RMK AO2
KGZN 252120Z AUTO 11007KT 10SM FEW036 SCT041 SCT055 28/19 A3019 RMK AO2
KGZN 252100Z AUTO 07009KT 10SM SCT035 SCT041 BKN055 28/19 A3020 RMK AO2


Page loaded:  08:42 UTC  |   01:42 AM Pacific  |   02:42 AM Mountain  |   03:42 AM Central  |   04:42 AM Eastern

 

ADVISORIES

FORECASTS

FORECASTS

OBSERVATIONS

USER TOOLS

ABOUT US